CYHY

Hay River / Merlyn Carter Airport

Hay River, Northwest Territories, Canada
METAR CYHY 201400Z 15007KT 15SM FEW090 SCT230 16/11 A3013 RMK AC1CI3 AC TR SLP210
Observed Flight Rules
Jul-20 @ 14:00 UTC (41 minutes ago) Visual Flight Rules
Wind Visibility Clouds
150° at 7 knots 15 miles
  • Few at 9,000' AGL
  • Scattered at 23,000' AGL
Temperatures Readings
Current 16°C / 61°F
Dewpoint 11°C / 52°F
Humidity 72%
Altimeter 30.13" Hg
Pressure 1021 hPa
Elevation 166
METAR CYHY 201400Z 15007KT 15SM FEW090 SCT230 16/11 A3013 RMK AC1CI3 AC TR SLP210
Observed Flight Rules
Jul-20 @ 14:00 UTC
(41 minutes ago)
VFR
Wind Visibility
150° at 7 knots 15 miles
Clouds
  • Few at 9,000' AGL
  • Scattered at 23,000' AGL
Temperature Dewpoint
16°C / 61°F 11°C / 52°F
Humidity Altimeter Pressure
72% 30.13" Hg 1021 hPa